sensor_id;sensor_type;location;lat;lon;timestamp;P1;durP1;ratioP1;P2;durP2;ratioP2
72791;SDS011;60907;53.268;8.764;2023-05-07T00:01:46;19.47;;;11.13;;
72791;SDS011;60907;53.268;8.764;2023-05-07T00:04:12;20.00;;;11.82;;
72791;SDS011;60907;53.268;8.764;2023-05-07T00:06:38;17.45;;;10.13;;
72791;SDS011;60907;53.268;8.764;2023-05-07T00:09:03;19.88;;;10.82;;
72791;SDS011;60907;53.268;8.764;2023-05-07T00:11:29;16.17;;;9.45;;
72791;SDS011;60907;53.268;8.764;2023-05-07T00:13:55;20.90;;;11.73;;
72791;SDS011;60907;53.268;8.764;2023-05-07T00:16:20;18.48;;;10.38;;
72791;SDS011;60907;53.268;8.764;2023-05-07T00:18:45;17.75;;;9.55;;
72791;SDS011;60907;53.268;8.764;2023-05-07T00:21:11;16.38;;;9.75;;
72791;SDS011;60907;53.268;8.764;2023-05-07T00:23:36;19.02;;;9.65;;
72791;SDS011;60907;53.268;8.764;2023-05-07T00:26:02;17.95;;;10.43;;
72791;SDS011;60907;53.268;8.764;2023-05-07T00:28:28;12.52;;;7.10;;
72791;SDS011;60907;53.268;8.764;2023-05-07T00:30:53;18.58;;;9.43;;
72791;SDS011;60907;53.268;8.764;2023-05-07T00:33:19;19.45;;;10.32;;
72791;SDS011;60907;53.268;8.764;2023-05-07T00:35:45;16.92;;;10.23;;
72791;SDS011;60907;53.268;8.764;2023-05-07T00:38:11;17.55;;;10.38;;
72791;SDS011;60907;53.268;8.764;2023-05-07T00:40:36;18.60;;;10.07;;
72791;SDS011;60907;53.268;8.764;2023-05-07T00:43:02;15.20;;;9.63;;
72791;SDS011;60907;53.268;8.764;2023-05-07T00:45:28;18.17;;;9.68;;
72791;SDS011;60907;53.268;8.764;2023-05-07T00:48:00;18.50;;;10.23;;
72791;SDS011;60907;53.268;8.764;2023-05-07T00:50:26;13.70;;;7.53;;
72791;SDS011;60907;53.268;8.764;2023-05-07T00:52:53;16.83;;;9.82;;
72791;SDS011;60907;53.268;8.764;2023-05-07T00:55:19;19.17;;;10.40;;
72791;SDS011;60907;53.268;8.764;2023-05-07T00:57:45;16.25;;;10.15;;
72791;SDS011;60907;53.268;8.764;2023-05-07T01:00:10;17.85;;;8.60;;
72791;SDS011;60907;53.268;8.764;2023-05-07T01:02:40;19.10;;;10.90;;
72791;SDS011;60907;53.268;8.764;2023-05-07T01:05:07;18.45;;;10.10;;
72791;SDS011;60907;53.268;8.764;2023-05-07T01:07:34;17.33;;;9.68;;
72791;SDS011;60907;53.268;8.764;2023-05-07T01:10:00;19.42;;;10.25;;
72791;SDS011;60907;53.268;8.764;2023-05-07T01:12:28;20.30;;;9.93;;
72791;SDS011;60907;53.268;8.764;2023-05-07T01:17:19;21.73;;;11.00;;
72791;SDS011;60907;53.268;8.764;2023-05-07T01:19:45;20.15;;;11.45;;
72791;SDS011;60907;53.268;8.764;2023-05-07T01:22:10;19.67;;;10.57;;
72791;SDS011;60907;53.268;8.764;2023-05-07T01:24:37;19.60;;;10.35;;
72791;SDS011;60907;53.268;8.764;2023-05-07T01:27:03;17.83;;;10.13;;
72791;SDS011;60907;53.268;8.764;2023-05-07T01:29:28;18.73;;;10.35;;
72791;SDS011;60907;53.268;8.764;2023-05-07T01:31:54;18.50;;;11.00;;
72791;SDS011;60907;53.268;8.764;2023-05-07T01:34:25;20.77;;;11.05;;
72791;SDS011;60907;53.268;8.764;2023-05-07T01:36:53;18.45;;;10.48;;
72791;SDS011;60907;53.268;8.764;2023-05-07T01:39:20;17.35;;;10.10;;
72791;SDS011;60907;53.268;8.764;2023-05-07T01:41:46;18.08;;;10.50;;
72791;SDS011;60907;53.268;8.764;2023-05-07T01:44:12;17.92;;;11.07;;
72791;SDS011;60907;53.268;8.764;2023-05-07T01:46:38;18.40;;;8.77;;
72791;SDS011;60907;53.268;8.764;2023-05-07T01:49:03;16.53;;;9.57;;
72791;SDS011;60907;53.268;8.764;2023-05-07T01:51:29;17.30;;;9.43;;
72791;SDS011;60907;53.268;8.764;2023-05-07T01:53:55;18.27;;;9.50;;
72791;SDS011;60907;53.268;8.764;2023-05-07T01:56:21;19.25;;;9.20;;
72791;SDS011;60907;53.268;8.764;2023-05-07T01:58:46;16.88;;;9.75;;
72791;SDS011;60907;53.268;8.764;2023-05-07T02:01:12;14.65;;;8.40;;
72791;SDS011;60907;53.268;8.764;2023-05-07T02:03:38;19.08;;;10.23;;
72791;SDS011;60907;53.268;8.764;2023-05-07T02:06:04;18.23;;;10.23;;
72791;SDS011;60907;53.268;8.764;2023-05-07T02:08:29;18.08;;;8.93;;
72791;SDS011;60907;53.268;8.764;2023-05-07T02:10:55;17.17;;;9.98;;
72791;SDS011;60907;53.268;8.764;2023-05-07T02:13:21;17.77;;;8.50;;
72791;SDS011;60907;53.268;8.764;2023-05-07T02:15:47;19.00;;;9.73;;
72791;SDS011;60907;53.268;8.764;2023-05-07T02:18:16;18.55;;;9.88;;
72791;SDS011;60907;53.268;8.764;2023-05-07T02:20:41;15.65;;;8.45;;
72791;SDS011;60907;53.268;8.764;2023-05-07T02:23:07;17.23;;;9.35;;
72791;SDS011;60907;53.268;8.764;2023-05-07T02:25:33;16.95;;;10.20;;
72791;SDS011;60907;53.268;8.764;2023-05-07T02:27:58;18.73;;;10.05;;
72791;SDS011;60907;53.268;8.764;2023-05-07T02:30:24;19.63;;;9.95;;
72791;SDS011;60907;53.268;8.764;2023-05-07T02:32:50;16.92;;;9.40;;
72791;SDS011;60907;53.268;8.764;2023-05-07T02:35:15;16.67;;;9.80;;
72791;SDS011;60907;53.268;8.764;2023-05-07T02:37:41;17.92;;;10.25;;
72791;SDS011;60907;53.268;8.764;2023-05-07T02:40:06;15.15;;;8.25;;
72791;SDS011;60907;53.268;8.764;2023-05-07T02:42:32;17.77;;;9.55;;
72791;SDS011;60907;53.268;8.764;2023-05-07T02:44:58;19.07;;;9.50;;
72791;SDS011;60907;53.268;8.764;2023-05-07T02:47:23;17.48;;;9.68;;
72791;SDS011;60907;53.268;8.764;2023-05-07T02:49:49;13.95;;;8.05;;
72791;SDS011;60907;53.268;8.764;2023-05-07T02:52:14;17.13;;;10.00;;
72791;SDS011;60907;53.268;8.764;2023-05-07T02:54:40;16.67;;;8.97;;
72791;SDS011;60907;53.268;8.764;2023-05-07T02:57:05;16.42;;;7.82;;
72791;SDS011;60907;53.268;8.764;2023-05-07T02:59:31;19.83;;;10.18;;
72791;SDS011;60907;53.268;8.764;2023-05-07T03:01:56;18.88;;;9.88;;
72791;SDS011;60907;53.268;8.764;2023-05-07T03:04:21;16.63;;;9.47;;
72791;SDS011;60907;53.268;8.764;2023-05-07T03:06:47;14.37;;;7.80;;
72791;SDS011;60907;53.268;8.764;2023-05-07T03:09:12;19.80;;;8.82;;
72791;SDS011;60907;53.268;8.764;2023-05-07T03:11:37;12.00;;;6.67;;
72791;SDS011;60907;53.268;8.764;2023-05-07T03:14:03;17.83;;;9.60;;
72791;SDS011;60907;53.268;8.764;2023-05-07T03:16:28;17.63;;;9.07;;
72791;SDS011;60907;53.268;8.764;2023-05-07T03:18:54;17.60;;;8.57;;
72791;SDS011;60907;53.268;8.764;2023-05-07T03:21:19;13.20;;;7.47;;
72791;SDS011;60907;53.268;8.764;2023-05-07T03:23:45;18.05;;;9.38;;
72791;SDS011;60907;53.268;8.764;2023-05-07T03:26:10;17.90;;;9.18;;
72791;SDS011;60907;53.268;8.764;2023-05-07T03:28:36;17.38;;;8.50;;
72791;SDS011;60907;53.268;8.764;2023-05-07T03:31:02;12.50;;;7.57;;
72791;SDS011;60907;53.268;8.764;2023-05-07T03:33:27;15.48;;;7.75;;
72791;SDS011;60907;53.268;8.764;2023-05-07T03:35:53;17.70;;;8.77;;
72791;SDS011;60907;53.268;8.764;2023-05-07T03:38:18;11.88;;;5.95;;
72791;SDS011;60907;53.268;8.764;2023-05-07T03:40:43;14.73;;;7.93;;
72791;SDS011;60907;53.268;8.764;2023-05-07T03:43:09;13.57;;;7.45;;
72791;SDS011;60907;53.268;8.764;2023-05-07T03:45:34;13.70;;;7.65;;
72791;SDS011;60907;53.268;8.764;2023-05-07T03:48:00;14.70;;;7.15;;
72791;SDS011;60907;53.268;8.764;2023-05-07T03:50:25;15.30;;;7.78;;
72791;SDS011;60907;53.268;8.764;2023-05-07T03:52:51;14.57;;;7.97;;
72791;SDS011;60907;53.268;8.764;2023-05-07T03:55:16;17.80;;;8.65;;
72791;SDS011;60907;53.268;8.764;2023-05-07T03:57:42;14.32;;;8.07;;
72791;SDS011;60907;53.268;8.764;2023-05-07T04:00:07;12.20;;;6.97;;
72791;SDS011;60907;53.268;8.764;2023-05-07T04:02:33;12.85;;;7.15;;
72791;SDS011;60907;53.268;8.764;2023-05-07T04:04:58;13.23;;;7.03;;
72791;SDS011;60907;53.268;8.764;2023-05-07T04:07:24;12.68;;;7.18;;
72791;SDS011;60907;53.268;8.764;2023-05-07T04:09:49;14.33;;;8.10;;
72791;SDS011;60907;53.268;8.764;2023-05-07T04:12:15;13.80;;;7.28;;
72791;SDS011;60907;53.268;8.764;2023-05-07T04:14:40;11.40;;;6.15;;
72791;SDS011;60907;53.268;8.764;2023-05-07T04:17:05;14.63;;;7.33;;
72791;SDS011;60907;53.268;8.764;2023-05-07T04:19:33;13.80;;;7.60;;
72791;SDS011;60907;53.268;8.764;2023-05-07T04:21:58;9.43;;;6.07;;
72791;SDS011;60907;53.268;8.764;2023-05-07T04:24:24;12.02;;;7.30;;
72791;SDS011;60907;53.268;8.764;2023-05-07T04:26:49;12.93;;;6.53;;
72791;SDS011;60907;53.268;8.764;2023-05-07T04:29:16;15.23;;;8.48;;
72791;SDS011;60907;53.268;8.764;2023-05-07T04:31:41;12.73;;;7.28;;
72791;SDS011;60907;53.268;8.764;2023-05-07T04:36:35;16.13;;;6.28;;
72791;SDS011;60907;53.268;8.764;2023-05-07T04:39:03;14.27;;;6.97;;
72791;SDS011;60907;53.268;8.764;2023-05-07T04:41:28;13.95;;;8.07;;
72791;SDS011;60907;53.268;8.764;2023-05-07T04:43:54;13.20;;;7.45;;
72791;SDS011;60907;53.268;8.764;2023-05-07T04:46:19;13.15;;;7.50;;
72791;SDS011;60907;53.268;8.764;2023-05-07T04:48:45;13.65;;;6.72;;
72791;SDS011;60907;53.268;8.764;2023-05-07T04:51:10;13.75;;;7.80;;
72791;SDS011;60907;53.268;8.764;2023-05-07T04:53:36;8.13;;;3.75;;
72791;SDS011;60907;53.268;8.764;2023-05-07T04:56:02;15.70;;;7.95;;
72791;SDS011;60907;53.268;8.764;2023-05-07T04:58:28;13.93;;;7.40;;
72791;SDS011;60907;53.268;8.764;2023-05-07T05:00:56;14.60;;;7.85;;
72791;SDS011;60907;53.268;8.764;2023-05-07T05:03:22;10.98;;;5.78;;
72791;SDS011;60907;53.268;8.764;2023-05-07T05:05:48;13.20;;;7.07;;
72791;SDS011;60907;53.268;8.764;2023-05-07T05:08:14;14.23;;;7.80;;
72791;SDS011;60907;53.268;8.764;2023-05-07T05:10:39;14.55;;;7.63;;
72791;SDS011;60907;53.268;8.764;2023-05-07T05:13:06;15.52;;;7.38;;
72791;SDS011;60907;53.268;8.764;2023-05-07T05:15:32;14.93;;;7.15;;
72791;SDS011;60907;53.268;8.764;2023-05-07T05:17:57;11.87;;;6.90;;
72791;SDS011;60907;53.268;8.764;2023-05-07T05:20:22;10.98;;;6.50;;
72791;SDS011;60907;53.268;8.764;2023-05-07T05:22:48;13.63;;;7.32;;
72791;SDS011;60907;53.268;8.764;2023-05-07T05:25:13;12.85;;;7.43;;
72791;SDS011;60907;53.268;8.764;2023-05-07T05:27:39;12.55;;;6.85;;
72791;SDS011;60907;53.268;8.764;2023-05-07T05:30:04;12.85;;;7.38;;
72791;SDS011;60907;53.268;8.764;2023-05-07T05:32:30;13.43;;;6.88;;
72791;SDS011;60907;53.268;8.764;2023-05-07T05:34:56;13.50;;;7.57;;
72791;SDS011;60907;53.268;8.764;2023-05-07T05:37:21;14.77;;;8.35;;
72791;SDS011;60907;53.268;8.764;2023-05-07T05:39:47;13.48;;;7.35;;
72791;SDS011;60907;53.268;8.764;2023-05-07T05:42:12;14.38;;;7.80;;
72791;SDS011;60907;53.268;8.764;2023-05-07T05:44:37;12.63;;;6.70;;
72791;SDS011;60907;53.268;8.764;2023-05-07T05:47:03;12.73;;;7.50;;
72791;SDS011;60907;53.268;8.764;2023-05-07T05:49:28;11.77;;;6.25;;
72791;SDS011;60907;53.268;8.764;2023-05-07T05:51:54;12.60;;;7.77;;
72791;SDS011;60907;53.268;8.764;2023-05-07T05:54:20;12.70;;;6.45;;
72791;SDS011;60907;53.268;8.764;2023-05-07T05:56:46;13.30;;;7.10;;
72791;SDS011;60907;53.268;8.764;2023-05-07T05:59:11;12.10;;;7.13;;
72791;SDS011;60907;53.268;8.764;2023-05-07T06:01:37;10.38;;;7.10;;
72791;SDS011;60907;53.268;8.764;2023-05-07T06:04:03;12.40;;;7.50;;
72791;SDS011;60907;53.268;8.764;2023-05-07T06:06:28;12.60;;;6.72;;
72791;SDS011;60907;53.268;8.764;2023-05-07T06:08:54;6.03;;;4.40;;
72791;SDS011;60907;53.268;8.764;2023-05-07T06:11:19;11.52;;;6.63;;
72791;SDS011;60907;53.268;8.764;2023-05-07T06:13:45;12.10;;;7.00;;
72791;SDS011;60907;53.268;8.764;2023-05-07T06:16:10;12.27;;;6.40;;
72791;SDS011;60907;53.268;8.764;2023-05-07T06:18:35;9.77;;;5.38;;
72791;SDS011;60907;53.268;8.764;2023-05-07T06:21:01;8.65;;;5.65;;
72791;SDS011;60907;53.268;8.764;2023-05-07T06:23:27;9.88;;;6.05;;
72791;SDS011;60907;53.268;8.764;2023-05-07T06:25:52;10.55;;;6.72;;
72791;SDS011;60907;53.268;8.764;2023-05-07T06:28:17;10.50;;;6.60;;
72791;SDS011;60907;53.268;8.764;2023-05-07T06:30:43;9.88;;;6.30;;
72791;SDS011;60907;53.268;8.764;2023-05-07T06:33:08;10.00;;;6.03;;
72791;SDS011;60907;53.268;8.764;2023-05-07T06:35:34;8.83;;;5.97;;
72791;SDS011;60907;53.268;8.764;2023-05-07T06:37:59;8.32;;;5.40;;
72791;SDS011;60907;53.268;8.764;2023-05-07T06:40:25;7.00;;;5.00;;
72791;SDS011;60907;53.268;8.764;2023-05-07T06:42:51;12.20;;;6.80;;
72791;SDS011;60907;53.268;8.764;2023-05-07T06:45:16;9.57;;;5.60;;
72791;SDS011;60907;53.268;8.764;2023-05-07T06:47:41;10.60;;;6.57;;
72791;SDS011;60907;53.268;8.764;2023-05-07T06:50:07;10.00;;;6.22;;
72791;SDS011;60907;53.268;8.764;2023-05-07T06:52:33;9.23;;;6.30;;
72791;SDS011;60907;53.268;8.764;2023-05-07T06:54:59;9.02;;;5.75;;
72791;SDS011;60907;53.268;8.764;2023-05-07T06:57:24;9.85;;;6.35;;
72791;SDS011;60907;53.268;8.764;2023-05-07T06:59:50;9.93;;;6.60;;
72791;SDS011;60907;53.268;8.764;2023-05-07T07:02:15;9.35;;;5.88;;
72791;SDS011;60907;53.268;8.764;2023-05-07T07:04:41;9.35;;;5.95;;
72791;SDS011;60907;53.268;8.764;2023-05-07T07:07:06;8.57;;;6.07;;
72791;SDS011;60907;53.268;8.764;2023-05-07T07:09:32;9.52;;;5.93;;
72791;SDS011;60907;53.268;8.764;2023-05-07T07:11:57;8.27;;;5.70;;
72791;SDS011;60907;53.268;8.764;2023-05-07T07:14:23;9.05;;;5.95;;
72791;SDS011;60907;53.268;8.764;2023-05-07T07:16:48;10.10;;;5.40;;
72791;SDS011;60907;53.268;8.764;2023-05-07T07:19:14;8.55;;;5.40;;
72791;SDS011;60907;53.268;8.764;2023-05-07T07:21:40;8.82;;;5.47;;
72791;SDS011;60907;53.268;8.764;2023-05-07T07:24:06;6.82;;;4.80;;
72791;SDS011;60907;53.268;8.764;2023-05-07T07:26:31;3.85;;;2.53;;
72791;SDS011;60907;53.268;8.764;2023-05-07T07:28:57;6.63;;;4.30;;
72791;SDS011;60907;53.268;8.764;2023-05-07T07:31:22;6.75;;;5.05;;
72791;SDS011;60907;53.268;8.764;2023-05-07T07:33:48;7.63;;;4.07;;
72791;SDS011;60907;53.268;8.764;2023-05-07T07:36:15;7.97;;;5.05;;
72791;SDS011;60907;53.268;8.764;2023-05-07T07:38:40;8.65;;;5.45;;
72791;SDS011;60907;53.268;8.764;2023-05-07T07:41:07;8.02;;;5.13;;
72791;SDS011;60907;53.268;8.764;2023-05-07T07:45:58;6.87;;;4.80;;
72791;SDS011;60907;53.268;8.764;2023-05-07T07:48:23;8.17;;;5.23;;
72791;SDS011;60907;53.268;8.764;2023-05-07T07:50:49;7.68;;;4.57;;
72791;SDS011;60907;53.268;8.764;2023-05-07T07:53:16;8.30;;;4.97;;
72791;SDS011;60907;53.268;8.764;2023-05-07T07:55:41;8.57;;;4.93;;
72791;SDS011;60907;53.268;8.764;2023-05-07T07:58:07;6.40;;;4.45;;
72791;SDS011;60907;53.268;8.764;2023-05-07T08:00:32;7.45;;;4.72;;
72791;SDS011;60907;53.268;8.764;2023-05-07T08:02:58;7.68;;;4.82;;
72791;SDS011;60907;53.268;8.764;2023-05-07T08:05:23;7.83;;;4.97;;
72791;SDS011;60907;53.268;8.764;2023-05-07T08:07:49;6.68;;;4.75;;
72791;SDS011;60907;53.268;8.764;2023-05-07T08:10:17;7.90;;;4.82;;
72791;SDS011;60907;53.268;8.764;2023-05-07T08:12:46;8.10;;;5.22;;
72791;SDS011;60907;53.268;8.764;2023-05-07T08:15:15;6.93;;;4.78;;
72791;SDS011;60907;53.268;8.764;2023-05-07T08:17:40;7.90;;;4.85;;
72791;SDS011;60907;53.268;8.764;2023-05-07T08:20:06;9.45;;;6.18;;
72791;SDS011;60907;53.268;8.764;2023-05-07T08:22:32;7.63;;;4.40;;
72791;SDS011;60907;53.268;8.764;2023-05-07T08:24:58;9.55;;;4.68;;
72791;SDS011;60907;53.268;8.764;2023-05-07T08:27:25;6.15;;;4.40;;
72791;SDS011;60907;53.268;8.764;2023-05-07T08:29:50;7.38;;;4.70;;
72791;SDS011;60907;53.268;8.764;2023-05-07T08:32:16;7.50;;;4.77;;
72791;SDS011;60907;53.268;8.764;2023-05-07T08:34:41;7.80;;;5.73;;
72791;SDS011;60907;53.268;8.764;2023-05-07T08:37:06;8.27;;;4.70;;
72791;SDS011;60907;53.268;8.764;2023-05-07T08:39:32;7.53;;;4.97;;
72791;SDS011;60907;53.268;8.764;2023-05-07T08:41:57;8.50;;;4.87;;
72791;SDS011;60907;53.268;8.764;2023-05-07T08:44:26;8.68;;;5.38;;
72791;SDS011;60907;53.268;8.764;2023-05-07T08:46:53;9.68;;;5.75;;
72791;SDS011;60907;53.268;8.764;2023-05-07T08:49:19;7.05;;;4.75;;
72791;SDS011;60907;53.268;8.764;2023-05-07T08:51:45;8.60;;;5.20;;
72791;SDS011;60907;53.268;8.764;2023-05-07T08:54:11;8.05;;;5.50;;
72791;SDS011;60907;53.268;8.764;2023-05-07T08:56:37;9.13;;;5.07;;
72791;SDS011;60907;53.268;8.764;2023-05-07T08:59:02;8.87;;;5.33;;
72791;SDS011;60907;53.268;8.764;2023-05-07T09:01:28;8.18;;;5.25;;
72791;SDS011;60907;53.268;8.764;2023-05-07T09:03:54;7.53;;;4.75;;
72791;SDS011;60907;53.268;8.764;2023-05-07T09:06:20;6.47;;;5.07;;
72791;SDS011;60907;53.268;8.764;2023-05-07T09:08:49;6.57;;;4.60;;
72791;SDS011;60907;53.268;8.764;2023-05-07T09:11:16;5.68;;;3.50;;
72791;SDS011;60907;53.268;8.764;2023-05-07T09:13:42;7.78;;;4.65;;
72791;SDS011;60907;53.268;8.764;2023-05-07T09:16:10;8.30;;;5.55;;
72791;SDS011;60907;53.268;8.764;2023-05-07T09:18:40;8.27;;;5.55;;
72791;SDS011;60907;53.268;8.764;2023-05-07T09:21:10;7.20;;;5.50;;
72791;SDS011;60907;53.268;8.764;2023-05-07T09:23:36;8.77;;;4.93;;
72791;SDS011;60907;53.268;8.764;2023-05-07T09:26:01;7.43;;;5.05;;
72791;SDS011;60907;53.268;8.764;2023-05-07T09:28:27;8.55;;;5.18;;
72791;SDS011;60907;53.268;8.764;2023-05-07T09:30:52;7.83;;;5.30;;
72791;SDS011;60907;53.268;8.764;2023-05-07T09:33:17;7.93;;;4.70;;
72791;SDS011;60907;53.268;8.764;2023-05-07T09:35:43;7.70;;;4.82;;
72791;SDS011;60907;53.268;8.764;2023-05-07T09:38:08;6.57;;;4.55;;
72791;SDS011;60907;53.268;8.764;2023-05-07T09:40:34;7.10;;;4.07;;
72791;SDS011;60907;53.268;8.764;2023-05-07T09:43:09;9.10;;;4.10;;
72791;SDS011;60907;53.268;8.764;2023-05-07T09:45:36;6.70;;;4.20;;
72791;SDS011;60907;53.268;8.764;2023-05-07T09:48:01;6.57;;;4.40;;
72791;SDS011;60907;53.268;8.764;2023-05-07T09:50:35;7.80;;;4.47;;
72791;SDS011;60907;53.268;8.764;2023-05-07T09:53:01;6.85;;;4.97;;
72791;SDS011;60907;53.268;8.764;2023-05-07T09:55:28;8.30;;;5.43;;
72791;SDS011;60907;53.268;8.764;2023-05-07T09:57:54;8.68;;;5.20;;
72791;SDS011;60907;53.268;8.764;2023-05-07T10:00:21;6.65;;;4.57;;
72791;SDS011;60907;53.268;8.764;2023-05-07T10:02:51;7.47;;;5.05;;
72791;SDS011;60907;53.268;8.764;2023-05-07T10:05:21;7.60;;;4.55;;
72791;SDS011;60907;53.268;8.764;2023-05-07T10:07:47;5.47;;;4.00;;
72791;SDS011;60907;53.268;8.764;2023-05-07T10:10:12;7.35;;;5.30;;
72791;SDS011;60907;53.268;8.764;2023-05-07T10:15:09;7.78;;;4.20;;
72791;SDS011;60907;53.268;8.764;2023-05-07T10:17:38;6.78;;;4.78;;
72791;SDS011;60907;53.268;8.764;2023-05-07T10:20:04;7.15;;;4.55;;
72791;SDS011;60907;53.268;8.764;2023-05-07T10:22:37;7.47;;;5.00;;
72791;SDS011;60907;53.268;8.764;2023-05-07T10:25:06;8.75;;;4.60;;
72791;SDS011;60907;53.268;8.764;2023-05-07T10:32:45;10.95;;;7.45;;
72791;SDS011;60907;53.268;8.764;2023-05-07T10:35:17;8.45;;;5.18;;
72791;SDS011;60907;53.268;8.764;2023-05-07T10:37:45;8.13;;;5.07;;
72791;SDS011;60907;53.268;8.764;2023-05-07T10:40:11;7.82;;;5.25;;
72791;SDS011;60907;53.268;8.764;2023-05-07T10:42:37;11.77;;;5.80;;
72791;SDS011;60907;53.268;8.764;2023-05-07T10:45:12;9.13;;;5.47;;
72791;SDS011;60907;53.268;8.764;2023-05-07T10:48:05;9.07;;;5.28;;
72791;SDS011;60907;53.268;8.764;2023-05-07T10:50:39;6.78;;;4.90;;
72791;SDS011;60907;53.268;8.764;2023-05-07T10:56:29;8.43;;;5.30;;
72791;SDS011;60907;53.268;8.764;2023-05-07T10:58:44;7.50;;;4.97;;
72791;SDS011;60907;53.268;8.764;2023-05-07T11:01:09;7.43;;;4.88;;
72791;SDS011;60907;53.268;8.764;2023-05-07T11:03:37;8.38;;;4.82;;
72791;SDS011;60907;53.268;8.764;2023-05-07T11:06:38;8.75;;;4.93;;
72791;SDS011;60907;53.268;8.764;2023-05-07T11:09:04;6.70;;;4.80;;
72791;SDS011;60907;53.268;8.764;2023-05-07T11:11:43;6.47;;;5.07;;
72791;SDS011;60907;53.268;8.764;2023-05-07T11:16:34;8.90;;;5.67;;
72791;SDS011;60907;53.268;8.764;2023-05-07T11:19:01;7.47;;;5.28;;
72791;SDS011;60907;53.268;8.764;2023-05-07T11:21:37;7.35;;;5.30;;
72791;SDS011;60907;53.268;8.764;2023-05-07T11:24:03;6.80;;;5.00;;
72791;SDS011;60907;53.268;8.764;2023-05-07T11:26:31;9.68;;;6.00;;
72791;SDS011;60907;53.268;8.764;2023-05-07T11:29:19;8.35;;;5.80;;
72791;SDS011;60907;53.268;8.764;2023-05-07T11:31:49;7.45;;;5.10;;
72791;SDS011;60907;53.268;8.764;2023-05-07T11:34:20;7.82;;;4.97;;
72791;SDS011;60907;53.268;8.764;2023-05-07T11:36:47;7.72;;;5.78;;
72791;SDS011;60907;53.268;8.764;2023-05-07T11:39:31;7.38;;;5.53;;
72791;SDS011;60907;53.268;8.764;2023-05-07T11:42:01;6.88;;;5.07;;
72791;SDS011;60907;53.268;8.764;2023-05-07T11:44:42;7.60;;;4.57;;
72791;SDS011;60907;53.268;8.764;2023-05-07T11:47:11;6.85;;;4.47;;
72791;SDS011;60907;53.268;8.764;2023-05-07T11:49:36;6.65;;;5.10;;
72791;SDS011;60907;53.268;8.764;2023-05-07T11:52:02;9.50;;;5.00;;
72791;SDS011;60907;53.268;8.764;2023-05-07T11:54:34;5.43;;;4.07;;
72791;SDS011;60907;53.268;8.764;2023-05-07T11:57:01;7.32;;;4.93;;
72791;SDS011;60907;53.268;8.764;2023-05-07T11:59:26;7.57;;;4.30;;
72791;SDS011;60907;53.268;8.764;2023-05-07T12:01:51;6.72;;;5.00;;
72791;SDS011;60907;53.268;8.764;2023-05-07T12:04:19;8.13;;;4.50;;
72791;SDS011;60907;53.268;8.764;2023-05-07T12:06:45;5.10;;;3.95;;
72791;SDS011;60907;53.268;8.764;2023-05-07T12:09:11;5.53;;;4.10;;
72791;SDS011;60907;53.268;8.764;2023-05-07T12:11:36;7.40;;;4.10;;
72791;SDS011;60907;53.268;8.764;2023-05-07T12:14:04;7.13;;;4.47;;
72791;SDS011;60907;53.268;8.764;2023-05-07T12:16:30;5.20;;;3.55;;
72791;SDS011;60907;53.268;8.764;2023-05-07T12:18:56;5.80;;;4.13;;
72791;SDS011;60907;53.268;8.764;2023-05-07T12:21:23;7.30;;;4.18;;
72791;SDS011;60907;53.268;8.764;2023-05-07T12:23:50;5.85;;;4.38;;
72791;SDS011;60907;53.268;8.764;2023-05-07T12:26:15;6.43;;;4.60;;
72791;SDS011;60907;53.268;8.764;2023-05-07T12:28:41;5.90;;;3.42;;
72791;SDS011;60907;53.268;8.764;2023-05-07T12:31:06;5.80;;;3.30;;
72791;SDS011;60907;53.268;8.764;2023-05-07T12:33:32;6.68;;;4.40;;
72791;SDS011;60907;53.268;8.764;2023-05-07T12:36:02;7.35;;;4.47;;
72791;SDS011;60907;53.268;8.764;2023-05-07T12:38:32;5.55;;;4.10;;
72791;SDS011;60907;53.268;8.764;2023-05-07T12:40:59;4.97;;;3.95;;
72791;SDS011;60907;53.268;8.764;2023-05-07T12:43:28;5.33;;;3.80;;
72791;SDS011;60907;53.268;8.764;2023-05-07T12:45:55;6.50;;;3.70;;
72791;SDS011;60907;53.268;8.764;2023-05-07T12:48:22;6.07;;;4.10;;
72791;SDS011;60907;53.268;8.764;2023-05-07T12:50:51;5.03;;;4.05;;
72791;SDS011;60907;53.268;8.764;2023-05-07T12:53:19;5.53;;;3.70;;
72791;SDS011;60907;53.268;8.764;2023-05-07T12:55:47;4.88;;;3.60;;
72791;SDS011;60907;53.268;8.764;2023-05-07T12:58:17;4.97;;;3.58;;
72791;SDS011;60907;53.268;8.764;2023-05-07T13:00:44;4.65;;;3.60;;
72791;SDS011;60907;53.268;8.764;2023-05-07T13:03:10;5.45;;;4.28;;
72791;SDS011;60907;53.268;8.764;2023-05-07T13:05:35;6.13;;;3.80;;
72791;SDS011;60907;53.268;8.764;2023-05-07T13:08:01;6.32;;;4.03;;
72791;SDS011;60907;53.268;8.764;2023-05-07T13:10:26;8.07;;;4.07;;
72791;SDS011;60907;53.268;8.764;2023-05-07T13:12:52;4.97;;;3.78;;
72791;SDS011;60907;53.268;8.764;2023-05-07T13:15:18;5.43;;;3.85;;
72791;SDS011;60907;53.268;8.764;2023-05-07T13:17:43;5.93;;;4.10;;
72791;SDS011;60907;53.268;8.764;2023-05-07T13:20:09;4.18;;;2.85;;
72791;SDS011;60907;53.268;8.764;2023-05-07T13:22:36;4.35;;;3.88;;
72791;SDS011;60907;53.268;8.764;2023-05-07T13:25:01;5.70;;;3.85;;
72791;SDS011;60907;53.268;8.764;2023-05-07T13:27:27;5.25;;;3.63;;
72791;SDS011;60907;53.268;8.764;2023-05-07T13:29:52;5.05;;;2.90;;
72791;SDS011;60907;53.268;8.764;2023-05-07T13:32:18;3.93;;;3.33;;
72791;SDS011;60907;53.268;8.764;2023-05-07T13:34:43;3.65;;;2.88;;
72791;SDS011;60907;53.268;8.764;2023-05-07T13:37:09;4.82;;;3.22;;
72791;SDS011;60907;53.268;8.764;2023-05-07T13:39:34;4.88;;;3.33;;
72791;SDS011;60907;53.268;8.764;2023-05-07T13:42:00;3.58;;;2.45;;
72791;SDS011;60907;53.268;8.764;2023-05-07T13:44:25;4.18;;;2.90;;
72791;SDS011;60907;53.268;8.764;2023-05-07T13:46:51;4.78;;;2.97;;
72791;SDS011;60907;53.268;8.764;2023-05-07T13:49:16;3.10;;;2.80;;
72791;SDS011;60907;53.268;8.764;2023-05-07T13:51:42;5.93;;;3.30;;
72791;SDS011;60907;53.268;8.764;2023-05-07T13:54:07;4.30;;;3.33;;
72791;SDS011;60907;53.268;8.764;2023-05-07T13:56:33;5.57;;;3.17;;
72791;SDS011;60907;53.268;8.764;2023-05-07T13:58:58;4.03;;;3.22;;
72791;SDS011;60907;53.268;8.764;2023-05-07T14:01:24;4.18;;;3.40;;
72791;SDS011;60907;53.268;8.764;2023-05-07T14:03:49;3.63;;;2.92;;
72791;SDS011;60907;53.268;8.764;2023-05-07T14:06:15;4.27;;;3.30;;
72791;SDS011;60907;53.268;8.764;2023-05-07T14:08:40;4.07;;;3.10;;
72791;SDS011;60907;53.268;8.764;2023-05-07T14:11:05;4.45;;;3.47;;
72791;SDS011;60907;53.268;8.764;2023-05-07T14:13:31;3.57;;;3.13;;
72791;SDS011;60907;53.268;8.764;2023-05-07T14:15:57;3.85;;;3.08;;
72791;SDS011;60907;53.268;8.764;2023-05-07T14:18:22;4.40;;;3.20;;
72791;SDS011;60907;53.268;8.764;2023-05-07T14:20:48;4.03;;;3.22;;
72791;SDS011;60907;53.268;8.764;2023-05-07T14:23:14;4.88;;;3.40;;
72791;SDS011;60907;53.268;8.764;2023-05-07T14:25:39;3.42;;;2.88;;
72791;SDS011;60907;53.268;8.764;2023-05-07T14:28:05;5.15;;;3.08;;
72791;SDS011;60907;53.268;8.764;2023-05-07T14:30:31;3.90;;;3.08;;
72791;SDS011;60907;53.268;8.764;2023-05-07T14:32:56;3.60;;;3.00;;
72791;SDS011;60907;53.268;8.764;2023-05-07T14:35:22;4.28;;;3.03;;
72791;SDS011;60907;53.268;8.764;2023-05-07T14:37:47;5.32;;;3.45;;
72791;SDS011;60907;53.268;8.764;2023-05-07T14:40:12;4.82;;;3.42;;
72791;SDS011;60907;53.268;8.764;2023-05-07T14:42:39;3.70;;;3.30;;
72791;SDS011;60907;53.268;8.764;2023-05-07T14:45:05;3.85;;;3.45;;
72791;SDS011;60907;53.268;8.764;2023-05-07T14:47:31;3.47;;;2.83;;
72791;SDS011;60907;53.268;8.764;2023-05-07T14:49:56;4.63;;;3.80;;
72791;SDS011;60907;53.268;8.764;2023-05-07T14:52:22;4.00;;;3.53;;
72791;SDS011;60907;53.268;8.764;2023-05-07T14:54:47;5.28;;;3.40;;
72791;SDS011;60907;53.268;8.764;2023-05-07T14:57:13;5.17;;;3.37;;